Time;durP1;ratioP1;P1;durP2;ratioP2;P2;SDS_P1;SDS_P2;PMS_P1;PMS_P2;Temp;Humidity;BMP_temperature;BMP_pressure;BME280_temperature;BME280_humidity;BME280_pressure;Samples;Min_cycle;Max_cycle;Signal;HPM_P1;HPM_P2
2023/02/20 00:02:06;;;;;;;12.95;11.70;;;5.90;99.90;;;;;;5017297;28;20124;-71
2023/02/20 00:04:32;;;;;;;13.52;12.13;;;5.90;99.90;;;;;;5012887;28;20054;-72
2023/02/20 00:06:57;;;;;;;14.80;13.30;;;5.90;99.90;;;;;;5002257;28;20053;-72
2023/02/20 00:09:23;;;;;;;17.02;14.50;;;5.90;99.90;;;;;;5010159;28;20045;-72
2023/02/20 00:11:49;;;;;;;16.55;14.85;;;6.00;99.90;;;;;;4974503;28;20049;-72
2023/02/20 00:14:15;;;;;;;16.90;15.10;;;6.00;99.90;;;;;;5005162;28;20136;-71
2023/02/20 00:16:40;;;;;;;17.15;15.55;;;6.00;99.90;;;;;;5002613;28;20081;-72
2023/02/20 00:19:15;;;;;;;17.30;15.57;;;6.00;99.90;;;;;;4992286;28;20061;-72
2023/02/20 00:21:46;;;;;;;18.98;17.05;;;6.10;99.90;;;;;;5013636;28;20065;-71
2023/02/20 00:24:12;;;;;;;19.02;17.13;;;6.10;99.90;;;;;;5008198;28;20216;-71
2023/02/20 00:26:41;;;;;;;19.70;17.90;;;6.10;99.90;;;;;;4999728;28;20060;-72
2023/02/20 00:29:07;;;;;;;22.02;20.02;;;6.10;99.90;;;;;;5009325;28;20056;-72
2023/02/20 00:31:33;;;;;;;22.65;20.45;;;6.10;99.90;;;;;;5016731;28;20045;-72
2023/02/20 00:33:59;;;;;;;21.23;19.20;;;6.10;99.90;;;;;;5018812;28;20167;-73
2023/02/20 00:36:28;;;;;;;22.55;20.40;;;6.20;99.90;;;;;;4985777;28;20042;-72
2023/02/20 00:38:53;;;;;;;21.58;19.48;;;6.20;99.90;;;;;;5015661;28;20061;-71
2023/02/20 00:41:20;;;;;;;20.40;18.30;;;6.20;99.90;;;;;;5017371;28;20087;-72
2023/02/20 00:43:46;;;;;;;19.88;17.85;;;6.20;99.90;;;;;;5003543;28;20046;-71
2023/02/20 00:46:13;;;;;;;21.20;19.05;;;6.30;99.90;;;;;;5015882;28;20098;-71
2023/02/20 00:48:39;;;;;;;19.27;17.20;;;6.30;99.90;;;;;;5012620;28;20061;-72
2023/02/20 00:51:05;;;;;;;18.88;17.02;;;6.30;99.90;;;;;;4988169;28;20061;-71
2023/02/20 00:53:31;;;;;;;18.15;16.27;;;6.30;99.90;;;;;;5012714;28;20135;-71
2023/02/20 00:56:03;;;;;;;18.08;16.33;;;6.40;99.90;;;;;;4969327;28;20054;-72
2023/02/20 00:58:29;;;;;;;17.52;15.82;;;6.40;99.90;;;;;;5017977;28;20038;-71
2023/02/20 01:00:58;;;;;;;18.10;16.30;;;6.50;99.90;;;;;;5009799;28;20062;-72
2023/02/20 01:03:24;;;;;;;16.90;15.20;;;6.40;99.90;;;;;;5006473;28;20079;-72
2023/02/20 01:05:52;;;;;;;16.10;14.40;;;6.40;99.90;;;;;;5015455;28;20042;-72
2023/02/20 01:08:18;;;;;;;15.77;13.93;;;6.50;99.90;;;;;;4987579;28;20049;-72
2023/02/20 01:10:44;;;;;;;15.23;13.63;;;6.50;99.90;;;;;;5003289;28;20731;-74
2023/02/20 01:13:10;;;;;;;14.70;12.77;;;6.50;99.90;;;;;;5012886;28;20041;-74
2023/02/20 01:15:36;;;;;;;14.82;13.23;;;6.50;99.90;;;;;;5015595;28;20068;-74
2023/02/20 01:18:04;;;;;;;15.60;13.10;;;6.50;99.90;;;;;;5014101;28;20057;-74
2023/02/20 01:20:30;;;;;;;15.07;12.98;;;6.50;99.90;;;;;;5011831;28;20049;-75
2023/02/20 01:22:57;;;;;;;13.77;12.48;;;6.50;99.90;;;;;;4982058;28;20523;-72
2023/02/20 01:25:23;;;;;;;14.75;13.07;;;6.50;99.90;;;;;;5015848;28;20519;-72
2023/02/20 01:27:48;;;;;;;15.00;13.40;;;6.50;99.90;;;;;;5012319;28;20037;-72
2023/02/20 01:30:14;;;;;;;16.60;13.80;;;6.40;99.90;;;;;;4984630;28;20041;-72
2023/02/20 01:32:40;;;;;;;15.40;13.15;;;6.40;99.90;;;;;;4973251;28;20046;-72
2023/02/20 01:35:06;;;;;;;16.88;13.25;;;6.50;99.90;;;;;;5013064;28;20049;-72
2023/02/20 01:37:32;;;;;;;15.73;14.00;;;6.40;99.90;;;;;;5020933;28;20140;-72
2023/02/20 01:39:58;;;;;;;14.90;13.35;;;6.50;99.90;;;;;;5021885;28;20128;-72
2023/02/20 01:42:27;;;;;;;16.83;14.07;;;6.50;99.90;;;;;;5010198;28;20053;-71
2023/02/20 01:44:53;;;;;;;17.45;14.18;;;6.50;99.90;;;;;;5015427;28;20095;-72
2023/02/20 01:47:22;;;;;;;18.13;14.55;;;6.40;99.90;;;;;;5002889;28;20056;-71
2023/02/20 01:50:09;;;;;;;17.27;14.65;;;6.40;99.90;;;;;;5010124;28;20050;-72
2023/02/20 01:52:37;;;;;;;16.67;14.60;;;6.40;99.90;;;;;;5007367;28;20084;-71
2023/02/20 01:55:14;;;;;;;17.33;15.10;;;6.40;99.90;;;;;;5017534;28;20046;-71
2023/02/20 01:57:47;;;;;;;19.33;15.55;;;6.40;99.90;;;;;;5016763;28;20046;-74
2023/02/20 02:00:19;;;;;;;18.80;15.18;;;6.50;99.90;;;;;;5014641;28;20087;-73
2023/02/20 02:03:08;;;;;;;17.75;15.00;;;6.40;99.90;;;;;;5021385;28;20130;-73
2023/02/20 02:05:36;;;;;;;20.20;15.48;;;6.40;99.90;;;;;;5023734;28;20058;-71
2023/02/20 02:08:05;;;;;;;17.95;15.70;;;6.40;99.90;;;;;;5016584;28;20052;-73
2023/02/20 02:11:00;;;;;;;16.88;14.48;;;6.40;99.90;;;;;;5020348;28;20041;-73
2023/02/20 02:13:27;;;;;;;20.88;16.35;;;6.40;99.90;;;;;;5013513;28;20058;-72
2023/02/20 02:16:03;;;;;;;19.17;15.57;;;6.50;99.90;;;;;;5018222;28;20040;-71
2023/02/20 02:19:06;;;;;;;18.02;16.10;;;6.50;99.90;;;;;;5012888;28;20056;-72
2023/02/20 02:21:59;;;;;;;20.92;17.02;;;6.60;99.90;;;;;;5012180;28;20065;-71
2023/02/20 02:24:38;;;;;;;19.20;15.90;;;6.50;99.90;;;;;;5011040;28;20053;-74
2023/02/20 02:27:25;;;;;;;19.98;16.50;;;6.50;99.90;;;;;;4995835;28;20544;-74
2023/02/20 02:30:19;;;;;;;21.13;17.45;;;6.60;99.90;;;;;;4995525;28;20596;-74
2023/02/20 02:33:22;;;;;;;19.40;17.13;;;6.60;99.90;;;;;;4964311;28;20069;-73
2023/02/20 02:36:25;;;;;;;22.27;16.95;;;6.50;99.90;;;;;;5016097;28;20071;-73
2023/02/20 02:39:17;;;;;;;23.17;18.08;;;6.60;99.90;;;;;;5008912;28;20061;-73
2023/02/20 02:42:14;;;;;;;23.50;17.95;;;6.50;99.90;;;;;;4971358;28;20054;-74
2023/02/20 02:45:00;;;;;;;23.05;18.55;;;6.60;99.90;;;;;;5013116;28;20505;-75
2023/02/20 02:47:39;;;;;;;22.95;18.98;;;6.60;99.90;;;;;;5011959;28;20058;-74
2023/02/20 02:50:11;;;;;;;24.20;19.83;;;6.60;99.90;;;;;;5005610;28;20511;-75
2023/02/20 02:52:48;;;;;;;24.38;19.20;;;6.60;99.90;;;;;;5015585;28;20052;-75
2023/02/20 02:55:22;;;;;;;22.95;19.13;;;6.60;99.90;;;;;;5008052;28;20128;-76
2023/02/20 02:57:48;;;;;;;23.48;19.65;;;6.60;99.90;;;;;;4994955;28;20570;-75
2023/02/20 03:00:18;;;;;;;24.70;19.45;;;6.60;99.90;;;;;;5008401;28;20038;-75
2023/02/20 03:03:12;;;;;;;26.52;21.27;;;6.60;99.90;;;;;;5038843;28;20504;-76
2023/02/20 03:05:48;;;;;;;22.60;20.20;;;6.60;99.90;;;;;;5019199;28;20079;-74
2023/02/20 03:08:43;;;;;;;27.08;21.52;;;6.50;99.90;;;;;;5020301;28;20107;-71
2023/02/20 03:11:20;;;;;;;28.15;21.65;;;6.50;99.90;;;;;;5022870;28;20054;-72
2023/02/20 03:16:47;;;;;;;27.63;21.75;;;6.60;99.90;;;;;;5017205;28;20548;-75
2023/02/20 03:19:19;;;;;;;28.65;22.70;;;6.50;99.90;;;;;;5020831;28;20055;-74
2023/02/20 03:21:47;;;;;;;26.92;21.88;;;6.60;99.90;;;;;;5005428;28;20623;-75
2023/02/20 03:24:18;;;;;;;29.10;22.52;;;6.50;99.90;;;;;;5020924;28;20045;-74
2023/02/20 03:26:45;;;;;;;28.75;22.58;;;6.50;99.90;;;;;;5021305;28;20115;-75
2023/02/20 03:29:18;;;;;;;30.73;23.02;;;6.50;99.90;;;;;;5022455;28;20235;-74
2023/02/20 03:43:27;;;;;;;31.58;24.60;;;6.50;99.90;;;;;;5022803;28;20065;-73
2023/02/20 03:46:10;;;;;;;31.67;24.33;;;6.50;99.90;;;;;;5024132;28;20049;-74
2023/02/20 03:48:44;;;;;;;31.17;23.70;;;6.50;99.90;;;;;;5013056;28;20643;-73
2023/02/20 03:51:11;;;;;;;31.67;25.02;;;6.40;99.90;;;;;;5008648;28;20065;-74
2023/02/20 03:53:41;;;;;;;28.23;23.90;;;6.50;99.90;;;;;;5009683;28;20029;-74
2023/02/20 03:56:16;;;;;;;29.73;24.13;;;6.60;99.90;;;;;;5028013;28;20117;-74
2023/02/20 03:58:47;;;;;;;30.90;25.58;;;6.50;99.90;;;;;;5021902;28;20049;-73
2023/02/20 04:01:16;;;;;;;35.92;27.83;;;6.50;99.90;;;;;;5014644;28;20047;-73
2023/02/20 04:03:46;;;;;;;35.13;25.05;;;6.50;99.90;;;;;;5016507;28;20068;-73
2023/02/20 04:06:16;;;;;;;33.47;25.50;;;6.50;99.90;;;;;;5020302;28;20056;-74
2023/02/20 04:09:18;;;;;;;33.42;25.67;;;6.60;99.90;;;;;;5015863;28;20050;-74
2023/02/20 04:11:57;;;;;;;36.13;27.23;;;6.60;99.90;;;;;;5019689;28;20064;-73
2023/02/20 04:14:26;;;;;;;32.85;25.38;;;6.60;99.90;;;;;;5023620;28;20058;-74
2023/02/20 04:16:57;;;;;;;37.47;26.63;;;6.70;99.90;;;;;;5023583;28;20041;-74
2023/02/20 04:19:23;;;;;;;35.22;27.15;;;6.70;99.90;;;;;;5021089;28;20053;-74
2023/02/20 04:22:01;;;;;;;34.72;28.20;;;6.80;99.90;;;;;;5009111;28;20037;-74
2023/02/20 04:24:39;;;;;;;33.72;28.70;;;6.80;99.90;;;;;;5019395;28;20129;-75
2023/02/20 04:27:08;;;;;;;38.25;28.48;;;6.90;99.90;;;;;;5034239;28;20040;-75
2023/02/20 04:29:34;;;;;;;34.90;28.25;;;6.90;99.90;;;;;;5003573;28;20060;-74
2023/02/20 04:32:00;;;;;;;36.42;29.95;;;6.90;99.90;;;;;;4989864;28;20046;-74
2023/02/20 04:34:26;;;;;;;43.58;30.45;;;7.00;99.90;;;;;;5023936;28;20064;-74
2023/02/20 04:37:07;;;;;;;40.08;29.77;;;7.00;99.90;;;;;;5017151;28;20056;-75
2023/02/20 04:39:33;;;;;;;42.75;30.25;;;7.00;99.90;;;;;;5023482;28;20049;-75
2023/02/20 04:41:58;;;;;;;40.97;31.25;;;7.10;99.90;;;;;;5023094;28;20041;-75
2023/02/20 04:44:35;;;;;;;42.28;31.23;;;7.20;99.90;;;;;;4991094;28;20073;-74
2023/02/20 04:47:04;;;;;;;46.90;32.35;;;7.20;99.90;;;;;;5016197;28;20062;-75
2023/02/20 04:49:31;;;;;;;41.92;31.52;;;7.20;99.90;;;;;;5017492;28;20045;-74
2023/02/20 04:51:57;;;;;;;45.97;31.25;;;7.30;99.90;;;;;;5023047;28;20079;-75
2023/02/20 04:54:23;;;;;;;37.60;29.95;;;7.30;99.90;;;;;;5005937;28;20134;-75
2023/02/20 04:56:49;;;;;;;41.67;30.00;;;7.30;99.90;;;;;;5016420;28;20059;-74
2023/02/20 04:59:15;;;;;;;40.15;30.38;;;7.30;99.90;;;;;;5006115;28;20124;-75
2023/02/20 05:01:42;;;;;;;47.92;33.20;;;7.40;99.90;;;;;;5001308;28;20080;-74
2023/02/20 05:04:08;;;;;;;44.88;31.58;;;7.40;99.90;;;;;;5011460;28;20050;-74
2023/02/20 05:06:43;;;;;;;44.10;30.77;;;7.40;99.90;;;;;;5020732;28;20041;-75
2023/02/20 05:09:09;;;;;;;43.45;32.10;;;7.40;99.90;;;;;;4998960;28;20128;-75
2023/02/20 05:11:37;;;;;;;40.85;30.25;;;7.50;99.90;;;;;;5007678;28;20050;-74
2023/02/20 05:14:03;;;;;;;49.70;32.95;;;7.50;99.90;;;;;;5005308;28;20058;-76
2023/02/20 05:16:29;;;;;;;46.88;32.53;;;7.60;99.90;;;;;;5019233;28;20052;-75
2023/02/20 05:18:55;;;;;;;48.30;34.38;;;7.60;99.90;;;;;;5033145;28;20045;-74
2023/02/20 05:24:06;;;;;;;43.40;31.08;;;7.60;99.90;;;;;;4987784;28;20064;-73
2023/02/20 05:26:31;;;;;;;44.42;31.80;;;7.60;99.90;;;;;;5017135;28;20050;-73
2023/02/20 05:28:57;;;;;;;43.35;31.35;;;7.60;99.90;;;;;;5023745;28;20041;-74
2023/02/20 05:31:23;;;;;;;43.45;31.15;;;7.60;99.90;;;;;;5020214;28;20041;-74
2023/02/20 05:33:49;;;;;;;44.53;32.13;;;7.70;99.90;;;;;;5021866;28;20499;-73
2023/02/20 05:36:16;;;;;;;48.03;32.88;;;7.70;99.90;;;;;;5018386;28;20064;-73
2023/02/20 05:38:46;;;;;;;43.83;31.92;;;7.70;99.90;;;;;;5001965;28;20060;-73
2023/02/20 05:41:17;;;;;;;44.90;32.30;;;7.70;99.90;;;;;;5011271;28;20048;-73
2023/02/20 05:43:44;;;;;;;44.17;31.27;;;7.70;99.90;;;;;;4987066;28;20053;-73
2023/02/20 05:46:10;;;;;;;46.33;30.08;;;7.70;99.90;;;;;;5017735;28;20509;-74
2023/02/20 05:48:35;;;;;;;44.10;29.98;;;7.70;99.90;;;;;;5002353;28;20054;-74
2023/02/20 05:51:01;;;;;;;40.10;29.83;;;7.70;99.90;;;;;;5016732;28;20061;-74
2023/02/20 05:53:28;;;;;;;42.17;30.38;;;7.80;99.90;;;;;;4985968;28;20053;-74
2023/02/20 05:55:55;;;;;;;43.63;29.33;;;7.80;99.90;;;;;;5007682;28;20769;-73
2023/02/20 05:58:20;;;;;;;37.70;27.75;;;7.70;99.90;;;;;;5021731;28;20438;-75
2023/02/20 06:00:46;;;;;;;39.47;29.25;;;7.80;99.90;;;;;;4965284;28;20061;-75
2023/02/20 06:03:16;;;;;;;41.13;28.58;;;7.80;99.90;;;;;;5012176;28;20049;-75
2023/02/20 06:05:45;;;;;;;35.47;27.15;;;7.80;99.90;;;;;;5009712;28;20054;-71
2023/02/20 06:08:11;;;;;;;39.05;27.05;;;7.80;99.90;;;;;;5011464;28;20064;-70
2023/02/20 06:10:36;;;;;;;38.55;27.60;;;7.80;99.90;;;;;;4999182;28;20401;-71
2023/02/20 06:13:02;;;;;;;38.50;26.10;;;7.90;99.90;;;;;;4985598;28;20547;-71
2023/02/20 06:15:28;;;;;;;39.40;26.05;;;7.90;99.90;;;;;;5015898;28;20041;-74
2023/02/20 06:17:54;;;;;;;37.20;25.10;;;7.90;99.90;;;;;;5016344;28;20038;-74
2023/02/20 06:20:20;;;;;;;38.72;24.50;;;7.90;99.90;;;;;;4986465;28;20041;-74
2023/02/20 06:22:48;;;;;;;35.65;22.95;;;7.90;99.90;;;;;;5013053;28;20084;-75
2023/02/20 06:25:13;;;;;;;38.22;23.48;;;8.00;99.90;;;;;;5014048;28;20496;-74
2023/02/20 06:27:39;;;;;;;31.60;21.77;;;8.00;99.90;;;;;;5009433;28;20056;-75
2023/02/20 06:30:05;;;;;;;35.17;23.10;;;8.00;99.90;;;;;;4987416;28;20045;-76
2023/02/20 06:32:34;;;;;;;29.25;21.58;;;8.00;99.90;;;;;;4982607;28;20041;-73
2023/02/20 06:35:00;;;;;;;29.92;21.52;;;8.00;99.90;;;;;;5015775;28;20430;-74
2023/02/20 06:37:26;;;;;;;29.08;19.83;;;8.10;99.90;;;;;;5011054;28;20104;-74
2023/02/20 06:39:51;;;;;;;33.75;21.05;;;8.10;99.90;;;;;;5014325;28;20042;-74
2023/02/20 06:42:17;;;;;;;27.55;20.33;;;8.10;99.90;;;;;;5011675;28;20500;-73
2023/02/20 06:44:43;;;;;;;30.67;21.00;;;8.10;99.90;;;;;;5018049;28;20061;-74
2023/02/20 06:47:09;;;;;;;31.95;19.70;;;8.10;99.90;;;;;;4998473;28;20038;-73
2023/02/20 06:49:35;;;;;;;27.55;19.75;;;8.10;99.90;;;;;;5012495;28;20753;-75
2023/02/20 06:52:01;;;;;;;27.30;19.00;;;8.10;99.90;;;;;;4990547;28;20046;-75
2023/02/20 06:54:27;;;;;;;28.98;19.85;;;8.10;99.90;;;;;;5014580;28;20042;-74
2023/02/20 06:56:53;;;;;;;30.15;20.00;;;8.10;99.90;;;;;;5019654;28;20186;-71
2023/02/20 06:59:19;;;;;;;30.75;20.17;;;8.20;99.90;;;;;;5011940;28;20511;-72
2023/02/20 07:01:44;;;;;;;31.60;22.15;;;8.10;99.90;;;;;;5014288;28;20053;-70
2023/02/20 07:04:16;;;;;;;30.52;19.98;;;8.20;99.90;;;;;;5002461;28;20088;-70
2023/02/20 07:06:43;;;;;;;32.10;21.00;;;8.20;99.90;;;;;;5019305;28;20046;-71
2023/02/20 07:09:09;;;;;;;29.33;20.10;;;8.10;99.90;;;;;;4998207;28;20052;-72
2023/02/20 07:11:34;;;;;;;29.05;20.58;;;8.20;99.90;;;;;;5009908;28;20053;-73
2023/02/20 07:14:00;;;;;;;34.17;21.27;;;8.20;99.90;;;;;;5028041;28;20496;-72
2023/02/20 07:16:27;;;;;;;25.80;19.92;;;8.20;99.90;;;;;;5012457;28;20041;-72
2023/02/20 07:18:53;;;;;;;29.88;21.13;;;8.20;99.90;;;;;;5027163;28;20053;-71
2023/02/20 07:21:18;;;;;;;34.25;22.45;;;8.20;99.90;;;;;;5015618;28;20053;-72
2023/02/20 07:23:44;;;;;;;29.50;21.02;;;8.20;99.90;;;;;;5016199;28;20049;-73
2023/02/20 07:26:28;;;;;;;32.55;22.17;;;8.20;99.90;;;;;;5005117;28;20972;-72
2023/02/20 07:28:57;;;;;;;29.38;21.63;;;8.20;99.90;;;;;;5024515;28;20514;-72
2023/02/20 07:31:24;;;;;;;27.90;21.03;;;8.20;99.90;;;;;;5015785;28;20192;-72
2023/02/20 07:33:50;;;;;;;27.88;20.48;;;8.20;99.90;;;;;;5021223;28;20057;-72
2023/02/20 07:36:16;;;;;;;26.90;21.50;;;8.20;99.90;;;;;;5019305;28;20079;-72
2023/02/20 07:38:42;;;;;;;27.92;21.38;;;8.20;99.90;;;;;;5002039;28;20511;-72
2023/02/20 07:41:08;;;;;;;29.45;20.83;;;8.20;99.90;;;;;;5010092;28;20689;-72
2023/02/20 07:43:34;;;;;;;30.77;21.55;;;8.20;99.90;;;;;;5017496;28;20578;-71
2023/02/20 07:46:00;;;;;;;27.40;19.75;;;8.30;99.90;;;;;;4996139;28;20041;-72
2023/02/20 07:48:26;;;;;;;27.55;19.27;;;8.30;99.90;;;;;;5016473;28;20138;-72
2023/02/20 07:50:52;;;;;;;26.40;19.75;;;8.30;99.90;;;;;;5003930;28;20037;-72
2023/02/20 07:53:19;;;;;;;26.23;18.45;;;8.30;99.90;;;;;;5002593;28;20615;-70
2023/02/20 07:55:45;;;;;;;30.77;19.90;;;8.30;99.90;;;;;;5003214;28;20046;-72
2023/02/20 07:58:11;;;;;;;26.63;19.88;;;8.30;99.90;;;;;;5014480;28;20057;-73
2023/02/20 08:00:37;;;;;;;28.98;18.60;;;8.30;99.90;;;;;;5015559;28;20887;-72
2023/02/20 08:03:06;;;;;;;25.05;18.52;;;8.30;99.90;;;;;;5001465;28;20037;-73
2023/02/20 08:05:32;;;;;;;25.95;18.10;;;8.40;99.90;;;;;;5013291;28;20069;-72
2023/02/20 08:07:58;;;;;;;23.33;16.92;;;8.30;99.90;;;;;;5015862;28;20061;-72
2023/02/20 08:10:26;;;;;;;27.20;17.58;;;8.40;99.90;;;;;;5007970;28;20053;-76
2023/02/20 08:12:54;;;;;;;28.75;17.60;;;8.40;99.90;;;;;;4999057;28;20523;-79
2023/02/20 08:15:21;;;;;;;24.88;15.70;;;8.40;99.90;;;;;;5017990;28;20034;-75
2023/02/20 08:17:47;;;;;;;23.08;17.27;;;8.40;99.90;;;;;;5019988;28;20132;-72
2023/02/20 08:20:19;;;;;;;25.15;15.55;;;8.50;99.90;;;;;;5004461;28;20187;-72
2023/02/20 08:22:46;;;;;;;24.98;15.50;;;8.40;99.90;;;;;;5017665;28;20551;-72
2023/02/20 08:25:12;;;;;;;25.63;16.08;;;8.50;99.90;;;;;;5018928;28;20500;-72
2023/02/20 08:27:42;;;;;;;26.00;15.60;;;8.50;99.90;;;;;;4999928;28;20140;-72
2023/02/20 08:30:12;;;;;;;24.85;15.95;;;8.50;99.90;;;;;;5008852;28;20034;-71
2023/02/20 08:32:38;;;;;;;21.98;14.95;;;8.50;99.90;;;;;;5012072;28;20049;-71
2023/02/20 08:35:04;;;;;;;23.40;16.15;;;8.60;99.90;;;;;;4990019;28;20100;-75
2023/02/20 08:37:29;;;;;;;22.08;15.43;;;8.60;99.90;;;;;;5015927;28;20402;-77
2023/02/20 08:39:55;;;;;;;20.95;15.30;;;8.60;99.90;;;;;;5001264;28;20041;-76
2023/02/20 08:42:21;;;;;;;20.98;15.43;;;8.60;99.90;;;;;;5031836;28;20052;-77
2023/02/20 08:44:47;;;;;;;24.35;14.90;;;8.60;99.90;;;;;;4971125;28;20112;-77
2023/02/20 08:47:13;;;;;;;23.15;15.45;;;8.60;99.90;;;;;;5018823;28;20064;-77
2023/02/20 08:49:38;;;;;;;23.77;15.93;;;8.60;99.90;;;;;;4990242;28;20195;-76
2023/02/20 08:52:05;;;;;;;23.90;15.80;;;8.60;99.90;;;;;;5003745;28;20056;-76
2023/02/20 08:54:31;;;;;;;22.95;14.82;;;8.60;99.90;;;;;;5007171;28;20128;-75
2023/02/20 08:56:57;;;;;;;23.25;15.15;;;8.60;99.90;;;;;;5011792;28;20073;-75
2023/02/20 08:59:22;;;;;;;23.58;14.95;;;8.60;99.90;;;;;;5011651;28;20136;-75
2023/02/20 09:01:48;;;;;;;18.27;14.05;;;8.60;99.90;;;;;;4987907;28;20735;-73
2023/02/20 09:04:15;;;;;;;22.38;15.15;;;8.70;99.90;;;;;;4997467;28;20046;-75
2023/02/20 09:06:41;;;;;;;26.45;14.85;;;8.70;99.90;;;;;;5003480;28;20050;-75
2023/02/20 09:09:07;;;;;;;21.08;13.65;;;8.70;99.90;;;;;;4986304;28;20045;-75
2023/02/20 09:11:33;;;;;;;21.92;15.05;;;8.70;99.90;;;;;;5000775;28;20164;-75
2023/02/20 09:13:59;;;;;;;23.83;15.38;;;8.80;99.90;;;;;;5005942;28;20069;-76
2023/02/20 09:16:26;;;;;;;23.83;15.05;;;8.80;99.90;;;;;;5007543;28;20045;-76
2023/02/20 09:18:54;;;;;;;17.65;14.27;;;8.80;99.90;;;;;;5010838;28;20042;-76
2023/02/20 09:21:20;;;;;;;23.75;15.40;;;8.80;99.90;;;;;;5013512;28;20053;-77
2023/02/20 09:23:46;;;;;;;31.10;15.13;;;8.80;99.90;;;;;;5009606;28;20061;-71
2023/02/20 09:26:12;;;;;;;25.77;14.45;;;8.80;99.90;;;;;;4995765;28;20083;-76
2023/02/20 09:28:39;;;;;;;21.33;13.05;;;8.80;99.90;;;;;;5017358;28;20051;-76
2023/02/20 09:31:05;;;;;;;22.45;13.02;;;8.90;99.90;;;;;;5005652;28;20053;-77
2023/02/20 09:33:31;;;;;;;22.27;12.80;;;8.90;99.90;;;;;;5010365;28;20041;-78
2023/02/20 09:35:57;;;;;;;21.50;13.30;;;8.90;99.90;;;;;;5009376;28;20069;-77
2023/02/20 09:38:26;;;;;;;19.85;12.30;;;8.90;99.90;;;;;;4985749;28;20085;-77
2023/02/20 09:41:01;;;;;;;23.67;13.30;;;9.00;99.90;;;;;;5003397;28;20128;-76
2023/02/20 09:43:33;;;;;;;24.67;12.77;;;9.00;99.90;;;;;;4997769;28;20126;-76
2023/02/20 09:46:17;;;;;;;19.65;12.30;;;9.00;99.90;;;;;;5008683;28;20540;-76
2023/02/20 09:48:58;;;;;;;19.20;12.10;;;9.00;99.90;;;;;;5013453;28;20045;-76
2023/02/20 09:51:28;;;;;;;20.23;12.10;;;9.10;99.90;;;;;;5009896;28;20470;-76
2023/02/20 09:53:56;;;;;;;;;;;9.00;99.90;;;;;;4994609;28;20058;-76
2023/02/20 09:56:36;;;;;;;19.08;12.25;;;9.00;99.90;;;;;;5020982;28;20008;-77
2023/02/20 09:59:09;;;;;;;20.13;12.65;;;9.00;99.90;;;;;;5014649;28;20049;-76
2023/02/20 10:01:42;;;;;;;20.13;12.85;;;9.10;99.90;;;;;;5018507;28;20229;-76
2023/02/20 10:04:18;;;;;;;23.85;13.10;;;9.10;99.90;;;;;;5028649;28;20045;-75
2023/02/20 10:06:45;;;;;;;23.00;13.43;;;9.10;99.90;;;;;;5018917;28;20508;-77
2023/02/20 10:09:14;;;;;;;22.92;13.65;;;9.10;99.90;;;;;;5020964;28;20049;-76
2023/02/20 10:12:18;;;;;;;20.52;13.75;;;9.10;99.90;;;;;;5010056;28;20056;-77
2023/02/20 10:14:48;;;;;;;21.50;13.20;;;9.10;99.90;;;;;;5008697;28;20038;-77
2023/02/20 10:17:46;;;;;;;20.48;13.38;;;9.10;99.90;;;;;;5012874;28;20046;-77
2023/02/20 10:20:18;;;;;;;19.98;13.40;;;9.10;99.90;;;;;;5012215;28;20373;-76
2023/02/20 10:23:00;;;;;;;20.60;14.50;;;9.10;99.90;;;;;;5012019;28;20107;-78
2023/02/20 10:25:33;;;;;;;24.38;15.00;;;9.10;99.90;;;;;;5011851;28;20055;-76
2023/02/20 10:28:17;;;;;;;23.45;14.70;;;9.10;99.90;;;;;;5003181;28;20055;-77
2023/02/20 10:31:20;;;;;;;19.65;15.18;;;9.10;99.90;;;;;;5009795;28;20049;-77
2023/02/20 10:33:52;;;;;;;17.15;14.05;;;9.10;99.90;;;;;;5010276;28;20492;-77
2023/02/20 10:36:34;;;;;;;18.50;13.38;;;9.10;99.90;;;;;;5023307;28;20046;-76
2023/02/20 10:39:13;;;;;;;20.88;14.98;;;9.10;99.90;;;;;;5022021;28;20403;-77
2023/02/20 10:41:59;;;;;;;17.90;13.17;;;9.10;99.90;;;;;;5010469;28;20050;-75
2023/02/20 10:44:46;;;;;;;20.80;13.93;;;9.10;99.90;;;;;;5013980;28;20115;-75
2023/02/20 10:47:27;;;;;;;16.23;12.05;;;9.10;99.90;;;;;;5016190;28;20102;-76
2023/02/20 10:50:15;;;;;;;17.50;12.43;;;9.20;99.90;;;;;;5014262;28;20042;-75
2023/02/20 10:52:50;;;;;;;17.92;11.85;;;9.20;99.90;;;;;;5029432;28;20456;-76
2023/02/20 10:55:27;;;;;;;17.48;13.00;;;9.20;99.90;;;;;;5021677;28;20840;-75
2023/02/20 10:58:04;;;;;;;19.05;12.25;;;9.20;99.90;;;;;;5023379;28;20052;-76
2023/02/20 11:00:39;;;;;;;19.17;11.90;;;9.20;99.90;;;;;;5013205;28;20057;-76
2023/02/20 11:03:14;;;;;;;17.08;11.85;;;9.20;99.90;;;;;;5018647;28;20068;-76
2023/02/20 11:05:48;;;;;;;16.70;12.02;;;9.30;99.90;;;;;;5022999;28;20689;-76
2023/02/20 11:08:19;;;;;;;17.42;11.45;;;9.30;99.90;;;;;;5023035;28;20075;-75
2023/02/20 11:10:47;;;;;;;18.70;12.27;;;9.30;99.90;;;;;;5002479;28;20085;-75
2023/02/20 11:13:19;;;;;;;17.20;11.30;;;9.30;99.90;;;;;;4989509;28;20045;-76
2023/02/20 11:15:47;;;;;;;18.33;12.38;;;9.40;99.90;;;;;;5019447;28;20144;-75
2023/02/20 11:18:25;;;;;;;21.30;11.40;;;9.40;99.90;;;;;;5003169;28;20053;-76
2023/02/20 11:20:52;;;;;;;19.88;12.23;;;9.40;99.90;;;;;;5020426;28;20496;-76
2023/02/20 11:23:40;;;;;;;16.73;11.15;;;9.40;99.90;;;;;;4998800;28;20493;-76
2023/02/20 11:26:29;;;;;;;22.02;12.63;;;9.40;99.90;;;;;;5021517;28;20049;-75
2023/02/20 11:29:15;;;;;;;21.45;11.80;;;9.40;99.90;;;;;;5017055;28;20049;-76
2023/02/20 11:31:43;;;;;;;18.05;12.00;;;9.40;99.90;;;;;;5011547;28;20050;-77
2023/02/20 11:34:21;;;;;;;20.23;12.23;;;9.50;99.90;;;;;;5017439;28;20049;-75
2023/02/20 11:37:11;;;;;;;20.40;11.77;;;9.50;99.90;;;;;;5012989;28;20068;-75
2023/02/20 11:39:37;;;;;;;17.27;11.53;;;9.50;99.90;;;;;;4998533;28;20140;-75
2023/02/20 11:42:13;;;;;;;17.92;11.05;;;9.50;99.90;;;;;;5000542;28;20127;-75
2023/02/20 11:44:39;;;;;;;15.35;10.43;;;9.50;99.90;;;;;;4993331;28;20112;-75
2023/02/20 11:47:23;;;;;;;15.88;10.48;;;9.50;99.90;;;;;;5014962;28;20050;-76
2023/02/20 11:50:07;;;;;;;14.48;10.75;;;9.60;99.90;;;;;;5010027;28;20523;-77
2023/02/20 11:52:33;;;;;;;16.08;10.52;;;9.60;99.90;;;;;;5028481;28;20116;-76
2023/02/20 11:55:28;;;;;;;18.90;11.50;;;9.60;99.90;;;;;;5022612;28;20164;-76
2023/02/20 11:57:57;;;;;;;18.42;11.30;;;9.60;99.90;;;;;;5004498;28;20115;-76
2023/02/20 12:00:26;;;;;;;19.40;10.70;;;9.60;99.90;;;;;;5015776;28;20045;-77
2023/02/20 12:03:08;;;;;;;16.50;11.05;;;9.60;99.90;;;;;;5023601;28;20087;-74
2023/02/20 12:05:41;;;;;;;19.27;11.85;;;9.70;99.90;;;;;;5023109;28;20657;-76
2023/02/20 12:08:29;;;;;;;17.23;11.15;;;9.60;99.90;;;;;;5008109;28;20052;-76
2023/02/20 12:11:29;;;;;;;19.40;10.95;;;9.70;99.90;;;;;;5023610;28;20045;-77
2023/02/20 12:13:58;;;;;;;;;;;9.60;99.90;;;;;;5009865;28;20065;-75
2023/02/20 12:16:35;;;;;;;19.67;11.68;;;9.60;99.90;;;;;;5026840;28;20307;-76
2023/02/20 12:19:16;;;;;;;16.75;10.38;;;9.60;99.90;;;;;;5028273;28;20053;-76
2023/02/20 12:22:20;;;;;;;15.10;10.05;;;9.70;99.90;;;;;;5020721;28;20397;-77
2023/02/20 12:25:09;;;;;;;17.52;11.32;;;9.70;99.90;;;;;;5020675;28;20057;-77
2023/02/20 12:28:02;;;;;;;16.65;10.57;;;9.70;99.90;;;;;;5025210;28;20076;-76
2023/02/20 12:31:11;;;;;;;19.52;11.50;;;9.70;99.90;;;;;;5015771;28;20112;-76
2023/02/20 12:33:58;;;;;;;16.95;10.77;;;9.70;99.90;;;;;;5016685;28;20050;-77
2023/02/20 12:36:40;;;;;;;15.82;10.93;;;9.70;99.90;;;;;;5024535;28;20036;-77
2023/02/20 12:39:37;;;;;;;17.73;11.38;;;9.70;99.90;;;;;;5024114;28;20077;-75
2023/02/20 12:42:21;;;;;;;17.92;10.35;;;9.70;99.90;;;;;;5009720;28;20049;-70
2023/02/20 12:45:01;;;;;;;14.43;9.60;;;9.80;99.90;;;;;;5018948;28;20058;-72
2023/02/20 12:47:33;;;;;;;13.55;9.75;;;9.80;99.90;;;;;;5015295;28;20085;-71
2023/02/20 12:50:04;;;;;;;18.77;10.25;;;9.80;99.90;;;;;;4991524;28;20482;-72
2023/02/20 12:52:57;;;;;;;17.35;10.15;;;9.80;99.90;;;;;;5011536;28;20058;-71
2023/02/20 12:55:51;;;;;;;15.82;9.98;;;9.80;99.90;;;;;;5008024;28;20061;-71
2023/02/20 12:58:55;;;;;;;18.15;9.75;;;9.80;99.90;;;;;;5018209;28;20053;-71
2023/02/20 13:01:22;;;;;;;17.52;10.05;;;9.80;99.90;;;;;;5021464;28;20049;-71
2023/02/20 13:03:59;;;;;;;15.77;9.55;;;9.80;99.90;;;;;;5013999;28;20045;-72
2023/02/20 13:06:55;;;;;;;13.85;9.10;;;9.80;99.90;;;;;;5014596;28;20079;-72
2023/02/20 13:09:34;;;;;;;16.77;9.90;;;9.80;99.90;;;;;;5024101;28;20053;-72
2023/02/20 13:12:18;;;;;;;20.75;10.68;;;9.90;99.90;;;;;;4997105;28;20045;-73
2023/02/20 13:15:06;;;;;;;17.75;10.02;;;9.90;99.90;;;;;;5007806;28;20050;-72
2023/02/20 13:17:31;;;;;;;19.00;10.18;;;9.90;99.90;;;;;;5016700;28;20451;-71
2023/02/20 13:20:13;;;;;;;17.85;9.52;;;9.90;99.90;;;;;;5015706;28;20084;-72
2023/02/20 13:22:38;;;;;;;15.70;9.05;;;10.00;99.90;;;;;;5015243;28;20114;-71